createdAt,value
2019-03-28T00:08:41.349Z,8.95
2019-03-28T00:11:12.199Z,11.08
2019-03-28T00:13:42.801Z,8.95
2019-03-28T00:16:13.401Z,11.95
2019-03-28T00:18:43.967Z,10.00
2019-03-28T00:21:14.616Z,11.12
2019-03-28T00:24:13.318Z,8.45
2019-03-28T00:26:43.897Z,10.43
2019-03-28T00:29:14.516Z,10.48
2019-03-28T00:31:47.768Z,8.43
2019-03-28T00:34:17.474Z,10.50
2019-03-28T00:36:48.744Z,9.25
2019-03-28T00:39:19.463Z,10.53
2019-03-28T00:41:50.104Z,9.95
2019-03-28T00:44:20.725Z,8.38
2019-03-28T00:46:51.344Z,10.65
2019-03-28T00:49:22.036Z,10.65
2019-03-28T00:51:52.685Z,8.98
2019-03-28T00:54:23.277Z,10.03
2019-03-28T00:56:53.901Z,10.98
2019-03-28T01:07:47.838Z,10.78
2019-03-28T01:10:19.469Z,10.05
2019-03-28T01:12:51.152Z,10.53
2019-03-28T01:15:21.805Z,9.20
2019-03-28T01:33:04.035Z,11.05
2019-03-28T01:35:35.131Z,9.45
2019-03-28T01:38:06.251Z,10.05
2019-03-28T01:40:37.241Z,7.80
2019-03-28T01:43:07.812Z,8.90
2019-03-28T01:45:38.783Z,14.23
2019-03-28T01:48:09.629Z,10.80
2019-03-28T01:50:40.665Z,9.25
2019-03-28T01:53:12.271Z,7.75
2019-03-28T01:55:43.237Z,8.18
2019-03-28T01:58:13.892Z,11.38
2019-03-28T02:00:45.271Z,10.53
2019-03-28T02:03:15.899Z,8.65
2019-03-28T02:05:46.505Z,9.05
2019-03-28T02:08:17.117Z,7.50
2019-03-28T02:10:47.710Z,10.10
2019-03-28T02:13:18.327Z,8.50
2019-03-28T02:15:48.940Z,12.60
2019-03-28T02:18:19.555Z,9.68
2019-03-28T02:20:50.199Z,11.85
2019-03-28T02:23:20.843Z,8.90
2019-03-28T02:25:51.735Z,8.03
2019-03-28T02:28:22.386Z,9.65
2019-03-28T02:30:52.985Z,12.43
2019-03-28T02:41:01.568Z,14.63
2019-03-28T02:58:07.298Z,14.03
2019-03-28T03:00:38.184Z,15.15
2019-03-28T03:03:09.237Z,13.35
2019-03-28T03:05:39.872Z,15.58
2019-03-28T03:08:10.526Z,15.88
2019-03-28T03:10:41.244Z,20.62
2019-03-28T03:13:11.868Z,12.90
2019-03-28T03:15:42.477Z,13.78
2019-03-28T03:18:13.103Z,16.75
2019-03-28T03:20:44.212Z,13.65
2019-03-28T03:23:15.254Z,16.70
2019-03-28T03:25:45.878Z,12.80
2019-03-28T03:28:16.504Z,19.07
2019-03-28T03:30:47.739Z,15.25
2019-03-28T03:33:18.491Z,14.85
2019-03-28T03:35:49.079Z,14.25
2019-03-28T03:38:19.728Z,11.60
2019-03-28T03:40:50.302Z,12.58
2019-03-28T03:43:20.957Z,13.38
2019-03-28T03:45:51.566Z,16.57
2019-03-28T03:48:22.255Z,14.55
2019-03-28T03:50:52.854Z,15.03
2019-03-28T03:53:23.474Z,17.57
2019-03-28T03:55:54.124Z,15.68
2019-03-28T03:58:25.071Z,15.00
2019-03-28T04:00:55.923Z,15.48
2019-03-28T04:03:26.559Z,13.40
2019-03-28T04:05:57.159Z,18.15
2019-03-28T04:08:28.038Z,12.78
2019-03-28T04:10:58.948Z,16.60
2019-03-28T04:13:29.586Z,14.60
2019-03-28T04:16:00.825Z,14.13
2019-03-28T04:18:31.417Z,14.20
2019-03-28T04:21:02.088Z,15.83
2019-03-28T04:23:32.717Z,16.32
2019-03-28T04:26:03.663Z,14.40
2019-03-28T04:28:34.257Z,18.10
2019-03-28T04:31:05.113Z,13.95
2019-03-28T04:33:35.943Z,17.02
2019-03-28T04:36:06.667Z,16.95
2019-03-28T04:38:37.531Z,16.80
2019-03-28T04:41:08.160Z,14.35
2019-03-28T04:43:38.853Z,14.73
2019-03-28T04:46:10.009Z,18.32
2019-03-28T04:48:40.607Z,16.35
2019-03-28T04:51:11.922Z,15.58
2019-03-28T04:53:42.781Z,15.45
2019-03-28T04:56:13.658Z,17.07
2019-03-28T04:58:45.084Z,16.20
2019-03-28T05:01:15.698Z,15.98
2019-03-28T05:03:46.395Z,17.40
2019-03-28T05:06:17.016Z,19.05
2019-03-28T05:08:47.822Z,17.37
2019-03-28T05:11:18.460Z,19.62
2019-03-28T05:13:49.053Z,17.50
2019-03-28T05:16:19.685Z,15.98
2019-03-28T05:18:50.266Z,18.42
2019-03-28T05:21:20.905Z,20.00
2019-03-28T05:23:52.314Z,19.17
2019-03-28T05:26:22.949Z,16.75
2019-03-28T05:28:57.845Z,16.02
2019-03-28T05:31:26.689Z,18.15
2019-03-28T05:33:57.283Z,18.40
2019-03-28T05:36:28.956Z,16.97
2019-03-28T05:38:59.808Z,17.37
2019-03-28T05:41:30.439Z,17.62
2019-03-28T05:44:01.329Z,19.82
2019-03-28T05:46:31.948Z,23.62
2019-03-28T05:49:02.555Z,18.67
2019-03-28T05:51:33.218Z,23.32
2019-03-28T05:54:03.831Z,22.35
2019-03-28T05:56:34.472Z,20.27
2019-03-28T05:59:10.780Z,18.57
2019-03-28T06:01:37.620Z,19.48
2019-03-28T06:04:08.427Z,21.52
2019-03-28T06:06:39.371Z,19.50
2019-03-28T06:09:10.273Z,20.32
2019-03-28T06:11:40.885Z,18.50
2019-03-28T06:14:11.481Z,21.17
2019-03-28T06:16:42.884Z,20.68
2019-03-28T06:19:13.777Z,19.73
2019-03-28T06:21:45.029Z,20.15
2019-03-28T06:24:15.712Z,20.68
2019-03-28T06:26:50.002Z,19.05
2019-03-28T06:29:23.956Z,16.85
2019-03-28T06:31:55.545Z,17.82
2019-03-28T06:34:25.037Z,18.15
2019-03-28T06:36:55.670Z,16.93
2019-03-28T06:39:26.259Z,19.20
2019-03-28T06:41:56.945Z,19.42
2019-03-28T06:44:27.538Z,17.87
2019-03-28T06:46:58.205Z,18.23
2019-03-28T06:49:31.226Z,17.48
2019-03-28T06:52:01.509Z,18.23
2019-03-28T06:54:32.877Z,17.90
2019-03-28T06:57:03.611Z,18.57
2019-03-28T06:59:37.708Z,18.12
2019-03-28T07:02:06.646Z,17.82
2019-03-28T07:04:37.649Z,17.75
2019-03-28T07:07:09.958Z,19.32
2019-03-28T07:09:40.594Z,16.27
2019-03-28T07:12:11.508Z,17.82
2019-03-28T07:14:42.461Z,18.32
2019-03-28T07:17:13.109Z,16.52
2019-03-28T07:19:43.705Z,15.38
2019-03-28T07:22:14.401Z,18.60
2019-03-28T07:24:45.017Z,19.32
2019-03-28T07:27:15.845Z,19.77
2019-03-28T07:29:51.098Z,18.05
2019-03-28T07:32:19.052Z,17.57
2019-03-28T07:34:49.658Z,18.77
2019-03-28T07:37:20.291Z,17.90
2019-03-28T07:39:50.906Z,17.25
2019-03-28T07:42:21.530Z,15.32
2019-03-28T07:44:52.150Z,17.00
2019-03-28T07:47:22.761Z,12.88
2019-03-28T07:49:53.615Z,16.25
2019-03-28T07:52:24.277Z,16.52
2019-03-28T07:54:54.887Z,15.83
2019-03-28T07:57:25.564Z,14.50
2019-03-28T08:00:04.156Z,15.48
2019-03-28T08:02:28.547Z,11.45
2019-03-28T08:05:01.526Z,15.63
2019-03-28T08:07:43.963Z,14.35
2019-03-28T08:10:04.148Z,15.43
2019-03-28T08:12:34.779Z,14.15
2019-03-28T08:15:06.449Z,13.38
2019-03-28T08:17:37.066Z,11.10
2019-03-28T08:20:10.246Z,12.10
2019-03-28T08:22:41.155Z,14.68
2019-03-28T08:25:13.097Z,12.60
2019-03-28T08:27:44.645Z,14.05
2019-03-28T08:30:18.820Z,11.33
2019-03-28T08:32:48.797Z,10.35
2019-03-28T08:35:19.458Z,9.93
2019-03-28T08:37:50.534Z,10.85
2019-03-28T08:40:35.487Z,12.18
2019-03-28T08:43:06.599Z,10.20
2019-03-28T08:45:37.228Z,9.80
2019-03-28T08:48:08.009Z,8.35
2019-03-28T08:50:38.732Z,8.60
2019-03-28T08:53:09.367Z,8.48
2019-03-28T08:55:40.062Z,9.60
2019-03-28T08:58:10.667Z,9.55
2019-03-28T09:00:51.460Z,9.68
2019-03-28T09:03:13.720Z,10.15
2019-03-28T09:05:44.471Z,9.85
2019-03-28T09:08:15.400Z,7.83
2019-03-28T09:10:46.302Z,10.08
2019-03-28T09:13:17.024Z,7.72
2019-03-28T09:15:47.672Z,10.30
2019-03-28T09:18:18.431Z,8.70
2019-03-28T09:20:49.056Z,9.30
2019-03-28T09:23:19.933Z,7.85
2019-03-28T09:25:50.530Z,7.87
2019-03-28T09:28:21.173Z,7.92
2019-03-28T09:30:52.604Z,10.13
2019-03-28T09:33:23.930Z,8.33
2019-03-28T09:35:54.525Z,10.03
2019-03-28T09:38:25.286Z,8.05
2019-03-28T09:40:55.911Z,8.03
2019-03-28T09:43:26.546Z,9.00
2019-03-28T09:46:00.267Z,9.65
2019-03-28T09:48:29.584Z,9.78
2019-03-28T09:51:00.666Z,8.28
2019-03-28T09:53:31.720Z,8.40
2019-03-28T09:56:02.327Z,8.15
2019-03-28T09:58:33.949Z,8.48
2019-03-28T10:01:05.409Z,7.78
2019-03-28T10:03:36.051Z,7.83
2019-03-28T10:06:06.671Z,8.28
2019-03-28T10:08:37.390Z,8.10
2019-03-28T10:11:07.991Z,8.23
2019-03-28T10:13:39.702Z,8.78
2019-03-28T10:16:10.648Z,8.38
2019-03-28T10:18:41.642Z,8.10
2019-03-28T10:21:12.286Z,11.90
2019-03-28T10:23:43.636Z,10.95
2019-03-28T10:26:15.003Z,8.70
2019-03-28T10:28:45.769Z,8.55
2019-03-28T10:31:17.048Z,8.55
2019-03-28T10:33:47.832Z,9.08
2019-03-28T10:36:18.428Z,7.42
2019-03-28T10:38:49.099Z,7.60
2019-03-28T10:41:19.726Z,7.25
2019-03-28T10:43:50.964Z,7.28
2019-03-28T10:46:21.612Z,8.50
2019-03-28T10:48:54.474Z,8.20
2019-03-28T10:51:24.587Z,8.68
2019-03-28T10:53:55.222Z,9.58
2019-03-28T10:56:26.062Z,9.20
2019-03-28T10:58:56.677Z,9.23
2019-03-28T11:01:47.151Z,9.58
2019-03-28T11:03:59.913Z,10.70
2019-03-28T11:06:30.476Z,7.92
2019-03-28T11:09:01.909Z,8.28
2019-03-28T11:11:33.773Z,8.08
2019-03-28T11:14:04.493Z,8.25
2019-03-28T11:16:35.405Z,5.87
2019-03-28T11:19:06.567Z,7.20
2019-03-28T11:21:37.411Z,6.35
2019-03-28T11:24:08.020Z,5.37
2019-03-28T11:26:38.656Z,6.37
2019-03-28T11:29:09.266Z,5.20
2019-03-28T11:31:46.730Z,5.40
2019-03-28T11:34:12.791Z,5.35
2019-03-28T11:36:43.430Z,5.75
2019-03-28T11:39:14.374Z,5.20
2019-03-28T11:41:44.968Z,6.17
2019-03-28T11:44:15.590Z,6.83
2019-03-28T11:46:46.206Z,5.00
2019-03-28T11:49:17.587Z,4.53
2019-03-28T11:51:48.196Z,5.33
2019-03-28T11:54:18.861Z,4.72
2019-03-28T11:56:49.442Z,5.00
2019-03-28T11:59:20.091Z,6.33
2019-03-28T12:01:59.764Z,4.58
2019-03-28T12:04:23.035Z,4.53
2019-03-28T12:06:53.919Z,3.92
2019-03-28T12:09:24.886Z,4.37
2019-03-28T12:11:55.491Z,3.72
2019-03-28T12:14:26.122Z,3.67
2019-03-28T12:16:56.785Z,4.33
2019-03-28T12:19:27.438Z,4.33
2019-03-28T12:21:58.064Z,4.47
2019-03-28T12:24:28.740Z,4.30
2019-03-28T12:26:59.345Z,4.17
2019-03-28T12:29:29.984Z,4.87
2019-03-28T12:32:13.344Z,4.42
2019-03-28T12:34:32.942Z,4.20
2019-03-28T12:37:03.539Z,4.17
2019-03-28T12:39:34.796Z,4.55
2019-03-28T12:42:05.433Z,5.58
2019-03-28T12:44:36.062Z,5.50
2019-03-28T12:47:06.684Z,5.40
2019-03-28T12:49:37.649Z,5.60
2019-03-28T12:52:08.251Z,5.00
2019-03-28T12:54:39.879Z,5.33
2019-03-28T12:57:14.164Z,5.90
2019-03-28T12:59:43.403Z,5.67
2019-03-28T13:02:28.346Z,7.62
2019-03-28T13:04:46.858Z,10.05
2019-03-28T13:07:17.436Z,4.83
2019-03-28T13:09:49.067Z,5.42
2019-03-28T13:12:19.712Z,6.65
2019-03-28T13:14:50.320Z,5.20
2019-03-28T13:17:20.931Z,5.10
2019-03-28T13:19:51.559Z,6.10
2019-03-28T13:22:22.189Z,6.62
2019-03-28T13:24:52.804Z,8.58
2019-03-28T13:27:23.398Z,7.78
2019-03-28T13:29:55.146Z,7.22
2019-03-28T13:32:25.833Z,8.25
2019-03-28T13:34:56.444Z,7.85
2019-03-28T13:37:27.045Z,10.10
2019-03-28T13:39:57.676Z,9.90
2019-03-28T13:42:28.567Z,7.45
2019-03-28T13:44:59.208Z,7.40
2019-03-28T13:47:29.813Z,7.97
2019-03-28T13:50:01.209Z,9.68
2019-03-28T13:52:32.088Z,8.63
2019-03-28T13:55:02.729Z,6.87
2019-03-28T13:57:34.547Z,8.98
2019-03-28T14:00:07.475Z,8.20
2019-03-28T14:02:38.390Z,7.85
2019-03-28T14:05:09.101Z,7.62
2019-03-28T14:07:39.747Z,7.05
2019-03-28T14:10:11.592Z,7.78
2019-03-28T14:12:42.291Z,7.55
2019-03-28T14:15:12.920Z,10.08
2019-03-28T14:17:43.570Z,10.75
2019-03-28T14:20:14.689Z,7.17
2019-03-28T14:22:45.297Z,7.15
2019-03-28T14:25:16.498Z,8.25
2019-03-28T14:27:47.106Z,6.90
2019-03-28T14:30:17.993Z,8.90
2019-03-28T14:32:53.644Z,8.95
2019-03-28T14:35:21.529Z,7.85
2019-03-28T14:37:52.122Z,7.60
2019-03-28T14:40:22.838Z,6.62
2019-03-28T14:42:53.769Z,7.28
2019-03-28T14:45:24.375Z,8.20
2019-03-28T14:47:54.999Z,8.10
2019-03-28T14:50:36.768Z,6.95
2019-03-28T14:53:07.494Z,10.00
2019-03-28T14:55:38.158Z,6.80
2019-03-28T14:58:08.987Z,6.62
2019-03-28T15:00:50.517Z,7.22
2019-03-28T15:03:28.514Z,6.95
2019-03-28T15:05:55.510Z,7.45
2019-03-28T15:08:26.495Z,8.55
2019-03-28T15:10:57.108Z,8.25
2019-03-28T15:13:31.264Z,8.93
2019-03-28T15:16:01.845Z,7.03
2019-03-28T15:18:32.450Z,7.87
2019-03-28T15:21:03.080Z,7.00
2019-03-28T15:23:33.759Z,8.55
2019-03-28T15:26:04.836Z,9.23
2019-03-28T15:28:35.399Z,7.58
2019-03-28T15:31:06.303Z,9.28
2019-03-28T15:33:39.881Z,11.35
2019-03-28T15:36:09.196Z,7.62
2019-03-28T15:38:40.129Z,8.90
2019-03-28T15:41:11.912Z,7.42
2019-03-28T15:43:42.782Z,9.23
2019-03-28T15:46:13.436Z,10.58
2019-03-28T15:48:44.572Z,8.40
2019-03-28T15:51:15.203Z,8.95
2019-03-28T15:53:45.807Z,12.05
2019-03-28T15:56:16.591Z,9.93
2019-03-28T15:58:47.187Z,10.63
2019-03-28T16:01:17.817Z,9.78
2019-03-28T16:03:53.074Z,10.98
2019-03-28T16:06:22.554Z,9.75
2019-03-28T16:08:53.667Z,10.00
2019-03-28T16:11:24.836Z,9.50
2019-03-28T16:13:55.729Z,10.90
2019-03-28T16:16:26.427Z,10.50
2019-03-28T16:19:01.385Z,9.28
2019-03-28T16:21:31.376Z,9.53
2019-03-28T16:24:01.997Z,10.53
2019-03-28T16:26:32.887Z,9.90
2019-03-28T16:29:03.484Z,8.53
2019-03-28T16:31:34.095Z,9.95
2019-03-28T16:34:07.268Z,11.20
2019-03-28T16:36:37.017Z,13.38
2019-03-28T16:39:08.579Z,9.35
2019-03-28T16:41:40.813Z,9.78
2019-03-28T16:44:11.431Z,10.58
2019-03-28T16:46:42.578Z,12.58
2019-03-28T16:49:13.184Z,9.30
2019-03-28T16:51:45.133Z,12.82
2019-03-28T16:54:15.727Z,9.58
2019-03-28T16:56:46.381Z,11.40
2019-03-28T16:59:16.983Z,11.45
2019-03-28T17:01:47.607Z,12.07
2019-03-28T17:04:20.971Z,10.63
2019-03-28T17:06:50.941Z,13.62
2019-03-28T17:09:23.542Z,10.43
2019-03-28T17:11:54.166Z,10.15
2019-03-28T17:14:24.777Z,9.88
2019-03-28T17:16:55.864Z,10.85
2019-03-28T17:19:26.519Z,10.72
2019-03-28T17:21:57.383Z,12.85
2019-03-28T17:24:28.139Z,11.08
2019-03-28T17:26:58.919Z,12.43
2019-03-28T17:29:29.765Z,15.23
2019-03-28T17:32:00.384Z,11.05
2019-03-28T17:34:35.228Z,12.95
2019-03-28T17:37:03.306Z,12.40
2019-03-28T17:39:33.997Z,12.95
2019-03-28T17:42:06.226Z,12.33
2019-03-28T17:44:37.562Z,11.88
2019-03-28T17:47:08.602Z,11.43
2019-03-28T17:49:39.257Z,13.38
2019-03-28T17:52:09.904Z,12.75
2019-03-28T17:54:40.536Z,14.80
2019-03-28T17:57:11.548Z,14.38
2019-03-28T17:59:45.207Z,13.28
2019-03-28T18:02:15.536Z,13.15
2019-03-28T18:04:48.175Z,13.08
2019-03-28T18:07:18.541Z,12.65
2019-03-28T18:09:49.157Z,13.53
2019-03-28T18:12:20.058Z,14.50
2019-03-28T18:14:50.947Z,14.70
2019-03-28T18:17:21.921Z,13.62
2019-03-28T18:19:52.517Z,13.32
2019-03-28T18:22:23.143Z,14.33
2019-03-28T18:24:53.739Z,14.63
2019-03-28T18:27:24.398Z,14.38
2019-03-28T18:29:55.995Z,13.32
2019-03-28T18:32:26.864Z,13.13
2019-03-28T18:35:05.279Z,16.42
2019-03-28T18:37:30.075Z,13.38
2019-03-28T18:40:03.938Z,13.75
2019-03-28T18:42:33.092Z,16.17
2019-03-28T18:45:03.726Z,14.98
2019-03-28T18:47:35.350Z,13.55
2019-03-28T18:50:06.951Z,14.03
2019-03-28T18:52:37.579Z,14.18
2019-03-28T18:55:09.184Z,14.78
2019-03-28T18:57:40.016Z,13.98
2019-03-28T19:00:11.001Z,14.68
2019-03-28T19:02:41.712Z,14.63
2019-03-28T19:05:19.716Z,13.93
2019-03-28T19:07:44.876Z,14.80
2019-03-28T19:10:15.573Z,14.60
2019-03-28T19:12:47.225Z,15.53
2019-03-28T19:15:18.522Z,15.05
2019-03-28T19:17:49.428Z,14.50
2019-03-28T19:20:20.519Z,15.48
2019-03-28T19:22:51.130Z,15.98
2019-03-28T19:25:21.741Z,18.35
2019-03-28T19:27:52.378Z,16.32
2019-03-28T19:30:31.942Z,18.92
2019-03-28T19:33:06.672Z,18.32
2019-03-28T19:35:36.627Z,19.40
2019-03-28T19:38:09.131Z,15.93
2019-03-28T19:40:39.662Z,17.77
2019-03-28T19:43:20.613Z,18.07
2019-03-28T19:45:43.587Z,17.05
2019-03-28T19:48:14.198Z,16.32
2019-03-28T19:50:44.827Z,17.27
2019-03-28T19:53:15.467Z,15.28
2019-03-28T19:55:46.098Z,14.50
2019-03-28T19:58:16.897Z,12.90
2019-03-28T20:00:47.541Z,14.15
2019-03-28T20:03:18.413Z,14.05
2019-03-28T20:05:50.088Z,13.20
2019-03-28T20:08:21.000Z,13.90
2019-03-28T20:10:51.616Z,14.05
2019-03-28T20:13:22.274Z,14.23
2019-03-28T20:15:52.881Z,16.93
2019-03-28T20:18:23.579Z,15.48
2019-03-28T20:20:55.694Z,14.60
2019-03-28T20:23:26.475Z,17.70
2019-03-28T20:25:57.061Z,16.90
2019-03-28T20:28:27.686Z,17.98
2019-03-28T20:30:58.315Z,17.48
2019-03-28T20:33:29.007Z,16.73
2019-03-28T20:36:18.546Z,17.92
2019-03-28T20:38:31.957Z,20.32
2019-03-28T20:41:02.588Z,17.75
2019-03-28T20:43:33.476Z,20.05
2019-03-28T20:46:04.109Z,19.07
2019-03-28T20:48:38.690Z,17.85
2019-03-28T20:51:08.180Z,18.98
2019-03-28T20:53:39.090Z,18.12
2019-03-28T20:56:09.990Z,18.73
2019-03-28T20:58:40.739Z,17.10
2019-03-28T21:01:11.356Z,18.30
2019-03-28T21:03:42.224Z,17.57
2019-03-28T21:06:15.519Z,17.70
2019-03-28T21:08:45.774Z,22.30
2019-03-28T21:11:16.383Z,17.27
2019-03-28T21:13:47.034Z,15.68
2019-03-28T21:16:19.286Z,16.45
2019-03-28T21:18:49.955Z,17.70
2019-03-28T21:21:20.598Z,16.93
2019-03-28T21:23:51.227Z,15.40
2019-03-28T21:26:21.963Z,14.93
2019-03-28T21:28:52.643Z,14.23
2019-03-28T21:31:23.311Z,15.00
2019-03-28T21:33:55.056Z,15.13
2019-03-28T21:36:30.118Z,15.50
2019-03-28T21:38:58.173Z,16.60
2019-03-28T21:41:28.789Z,15.30
2019-03-28T21:43:59.441Z,16.50
2019-03-28T21:46:30.035Z,15.60
2019-03-28T21:49:00.661Z,15.45
2019-03-28T21:51:31.260Z,14.90
2019-03-28T21:54:04.894Z,14.05
2019-03-28T21:56:34.457Z,14.63
2019-03-28T21:59:05.155Z,13.20
2019-03-28T22:01:36.051Z,13.38
2019-03-28T22:04:06.687Z,13.60
2019-03-28T22:06:42.733Z,13.83
2019-03-28T22:09:09.871Z,14.43
2019-03-28T22:11:42.301Z,13.80
2019-03-28T22:14:13.734Z,14.58
2019-03-28T22:16:44.449Z,14.85
2019-03-28T22:19:15.071Z,13.95
2019-03-28T22:21:45.679Z,14.58
2019-03-28T22:24:16.306Z,13.50
2019-03-28T22:26:46.905Z,13.00
2019-03-28T22:29:17.646Z,13.20
2019-03-28T22:31:48.249Z,12.33
2019-03-28T22:34:18.882Z,13.43
2019-03-28T22:36:57.033Z,12.43
2019-03-28T22:39:21.832Z,13.03
2019-03-28T22:41:52.521Z,12.98
2019-03-28T22:44:23.201Z,10.60
2019-03-28T22:46:53.806Z,13.05
2019-03-28T22:49:24.473Z,14.15
2019-03-28T22:51:55.048Z,13.13
2019-03-28T22:54:25.670Z,13.68
2019-03-28T22:56:56.299Z,12.00
2019-03-28T22:59:28.003Z,13.00
2019-03-28T23:01:58.593Z,12.98
2019-03-28T23:04:29.922Z,13.88
2019-03-28T23:07:10.326Z,12.35
2019-03-28T23:09:33.089Z,13.13
2019-03-28T23:12:03.959Z,12.88
2019-03-28T23:14:34.585Z,13.70
2019-03-28T23:17:05.196Z,14.20
2019-03-28T23:19:35.809Z,14.83
2019-03-28T23:22:06.421Z,13.35
2019-03-28T23:24:39.021Z,16.12
2019-03-28T23:27:10.802Z,13.20
2019-03-28T23:29:41.861Z,14.05
2019-03-28T23:32:12.994Z,15.55
2019-03-28T23:34:44.850Z,14.13
2019-03-28T23:37:24.607Z,13.83
2019-03-28T23:39:48.236Z,15.18
2019-03-28T23:42:19.076Z,14.63
2019-03-28T23:44:49.708Z,15.48
2019-03-28T23:47:20.299Z,14.63
2019-03-28T23:49:50.924Z,14.07
2019-03-28T23:52:21.554Z,13.83
2019-03-28T23:54:52.806Z,13.45
2019-03-28T23:57:23.479Z,14.30
2019-03-28T23:59:54.127Z,13.20
